Time;durP1;ratioP1;P1;durP2;ratioP2;P2;SDS_P1;SDS_P2;PMS_P1;PMS_P2;Temp;Humidity;BMP_temperature;BMP_pressure;BME280_temperature;BME280_humidity;BME280_pressure;Samples;Min_cycle;Max_cycle;Signal;HPM_P1;HPM_P2
2022/06/04 00:00:24;;;;;;;2.33;1.30;;;;;;;26.36;36.42;97029.91;5135744;27;20031;-26
2022/06/04 00:02:50;;;;;;;2.00;1.30;;;;;;;26.36;36.72;97027.88;5135489;27;20031;-27
2022/06/04 00:05:21;;;;;;;2.13;1.30;;;;;;;26.43;36.54;97018.25;5135715;27;20068;-26
2022/06/04 00:07:47;;;;;;;2.45;1.25;;;;;;;26.42;36.41;97019.50;5135355;27;20020;-26
2022/06/04 00:15:48;;;;;;;3.53;1.45;;;;;;;26.41;36.63;97023.56;5135361;27;20080;-27
2022/06/04 00:18:14;;;;;;;2.13;1.13;;;;;;;26.34;36.34;97024.09;5135611;27;20106;-27
2022/06/04 00:20:40;;;;;;;1.58;1.20;;;;;;;26.32;36.36;97023.88;5135242;27;20094;-27
2022/06/04 00:23:08;;;;;;;1.88;1.30;;;;;;;26.48;36.25;97029.28;5135255;27;20356;-26
2022/06/04 00:25:35;;;;;;;2.03;1.25;;;;;;;26.32;36.57;97033.00;5135180;27;20065;-27
2022/06/04 00:28:02;;;;;;;2.75;1.45;;;;;;;26.38;36.46;97027.38;5134971;27;20027;-28
2022/06/04 00:30:28;;;;;;;4.13;2.03;;;;;;;26.41;36.73;97026.34;5135225;27;20063;-26
2022/06/04 00:32:54;;;;;;;5.13;1.85;;;;;;;26.55;36.17;97028.00;5134874;27;20035;-27
2022/06/04 00:35:19;;;;;;;3.17;1.60;;;;;;;26.45;36.30;97018.47;5135223;27;20478;-26
2022/06/04 00:37:48;;;;;;;4.28;1.85;;;;;;;26.30;36.59;97023.66;5115497;27;20027;-28
2022/06/04 00:40:40;;;;;;;2.20;1.65;;;;;;;26.36;36.65;97024.34;5135084;27;20079;-26
2022/06/04 00:43:05;;;;;;;2.67;1.42;;;;;;;26.47;36.21;97025.00;5082548;27;20112;-28
2022/06/04 00:45:36;;;;;;;2.08;1.33;;;;;;;26.40;36.64;97022.06;5134872;27;20463;-26
2022/06/04 00:48:08;;;;;;;2.00;1.58;;;;;;;26.57;35.92;97028.22;5134758;27;20031;-27
2022/06/04 00:50:39;;;;;;;1.67;1.33;;;;;;;26.48;36.11;97020.97;5134592;27;20023;-27
2022/06/04 00:53:08;;;;;;;2.55;1.70;;;;;;;26.64;36.35;97024.13;5134681;27;20315;-26
2022/06/04 00:55:52;;;;;;;3.55;1.67;;;;;;;26.62;35.88;97027.41;5134992;27;20034;-26
2022/06/04 00:58:20;;;;;;;2.03;1.50;;;;;;;26.46;36.52;97023.50;5134655;27;20108;-28
2022/06/04 01:00:57;;;;;;;4.80;1.90;;;;;;;26.52;36.71;97028.28;5134772;27;20352;-27
2022/06/04 01:03:31;;;;;;;2.17;1.63;;;;;;;26.40;36.81;97027.59;5134619;27;20057;-28
2022/06/04 01:06:19;;;;;;;3.10;1.80;;;;;;;26.47;36.55;97027.03;5134642;27;20386;-27
2022/06/04 01:09:06;;;;;;;2.40;1.67;;;;;;;26.51;36.59;97026.75;5134453;27;20035;-29
2022/06/04 01:12:09;;;;;;;2.00;1.80;;;;;;;26.45;37.02;97029.59;5134376;27;20027;-26
2022/06/04 01:14:55;;;;;;;3.60;1.80;;;;;;;26.50;36.49;97028.78;5134613;27;20502;-27
2022/06/04 01:17:37;;;;;;;2.22;1.50;;;;;;;26.54;36.74;97029.25;5134729;27;20072;-26
2022/06/04 01:20:14;;;;;;;2.58;1.70;;;;;;;26.56;36.44;97029.50;5134318;28;20035;-27
2022/06/04 01:22:52;;;;;;;2.55;1.50;;;;;;;26.48;36.56;97034.09;5134327;28;20027;-27
2022/06/04 01:25:26;;;;;;;2.90;1.48;;;;;;;26.51;36.83;97035.09;5133094;28;20027;-26
2022/06/04 01:28:16;;;;;;;3.55;1.80;;;;;;;26.51;36.83;97033.06;5132167;28;20031;-27
2022/06/04 01:30:54;;;;;;;2.17;1.50;;;;;;;26.64;36.24;97036.00;5133760;28;20034;-27
2022/06/04 01:33:25;;;;;;;1.50;1.40;;;;;;;26.57;36.77;97039.38;5134277;28;20030;-27
2022/06/04 01:36:01;;;;;;;2.85;1.85;;;;;;;26.50;36.51;97037.13;5134277;28;20106;-26
2022/06/04 01:38:51;;;;;;;2.85;1.63;;;;;;;26.55;36.44;97041.16;5134186;28;20023;-27
2022/06/04 01:41:28;;;;;;;2.55;1.67;;;;;;;26.59;36.80;97045.13;5133859;28;20211;-27
2022/06/04 01:43:59;;;;;;;2.90;1.73;;;;;;;26.64;36.75;97047.13;5134383;28;20070;-27
2022/06/04 01:46:48;;;;;;;4.70;1.88;;;;;;;26.58;36.75;97040.13;5134041;28;20080;-27
2022/06/04 01:49:20;;;;;;;2.17;1.45;;;;;;;26.62;36.54;97044.09;5135495;27;20016;-27
2022/06/04 01:51:48;;;;;;;2.78;1.70;;;;;;;26.64;36.47;97049.91;5138219;27;20479;-28
2022/06/04 01:54:20;;;;;;;1.60;1.50;;;;;;;26.52;37.01;97034.59;5138285;27;20087;-27
2022/06/04 01:56:53;;;;;;;4.07;1.80;;;;;;;26.62;36.59;97043.34;5138257;27;20023;-27
2022/06/04 01:59:27;;;;;;;3.78;1.88;;;;;;;26.60;36.85;97043.88;5138126;27;20030;-27
2022/06/04 02:01:58;;;;;;;4.35;1.77;;;;;;;26.64;36.84;97038.03;5138135;27;20050;-27
2022/06/04 02:04:28;;;;;;;2.15;1.70;;;;;;;26.66;36.19;97041.81;5138011;27;20106;-26
2022/06/04 02:09:49;;;;;;;2.75;1.50;;;;;;;26.62;36.50;97037.78;5137542;27;20480;-26
2022/06/04 02:12:15;;;;;;;3.30;1.65;;;;;;;26.65;36.53;97025.63;5137960;27;20126;-27
2022/06/04 02:14:43;;;;;;;3.40;1.40;;;;;;;26.62;36.45;97030.19;5137609;27;20486;-28
2022/06/04 02:17:13;;;;;;;2.15;1.90;;;;;;;26.64;36.80;97030.44;5137735;27;20102;-27
2022/06/04 02:19:40;;;;;;;2.55;1.80;;;;;;;26.64;36.39;97033.22;5137738;27;20049;-27
2022/06/04 02:22:06;;;;;;;4.07;2.17;;;;;;;26.60;37.04;97041.09;5137708;27;20073;-27
2022/06/04 02:24:31;;;;;;;3.63;1.65;;;;;;;26.62;36.81;97044.09;5137556;27;20058;-26
2022/06/04 02:26:57;;;;;;;2.10;1.90;;;;;;;26.66;36.43;97052.94;5137462;27;20019;-26
2022/06/04 02:29:22;;;;;;;4.40;1.70;;;;;;;26.63;36.46;97056.75;5137343;27;20023;-27
2022/06/04 02:31:48;;;;;;;3.25;1.67;;;;;;;26.65;36.32;97051.41;5137401;27;20019;-26
2022/06/04 02:34:22;;;;;;;2.65;1.63;;;;;;;26.60;36.94;97048.69;5137364;27;20029;-26
2022/06/04 02:37:01;;;;;;;3.22;1.70;;;;;;;26.57;36.44;97047.72;5137556;27;20027;-28
2022/06/04 02:39:44;;;;;;;2.83;1.70;;;;;;;26.60;36.60;97034.75;5137274;27;20019;-27
2022/06/04 02:42:12;;;;;;;;;;;;;;;26.58;36.46;97037.34;5137647;27;20027;-27
2022/06/04 02:44:50;;;;;;;2.22;1.70;;;;;;;26.57;36.79;97039.38;5137232;27;19914;-27
2022/06/04 02:47:35;;;;;;;3.08;1.48;;;;;;;26.57;36.98;97041.38;5137193;27;20023;-28
2022/06/04 02:50:08;;;;;;;2.67;1.70;;;;;;;26.63;36.88;97056.00;5136940;27;20024;-26
2022/06/04 02:52:35;;;;;;;3.47;1.55;;;;;;;26.61;36.73;97064.84;5137284;27;20538;-27
2022/06/04 02:55:07;;;;;;;2.72;1.70;;;;;;;26.62;36.71;97068.38;5136995;27;20038;-26
2022/06/04 02:57:36;;;;;;;3.05;1.70;;;;;;;26.59;37.09;97064.59;5136840;27;20031;-27
2022/06/04 03:00:04;;;;;;;2.90;1.80;;;;;;;26.52;36.95;97067.22;5136459;27;20413;-27
2022/06/04 03:02:32;;;;;;;3.35;1.70;;;;;;;26.53;36.96;97063.91;5136182;27;20027;-26
2022/06/04 03:05:07;;;;;;;2.85;1.77;;;;;;;26.55;36.81;97072.50;5136943;27;20033;-27
2022/06/04 03:07:32;;;;;;;2.88;1.80;;;;;;;26.57;36.75;97064.41;5136650;27;20114;-26
2022/06/04 03:10:06;;;;;;;4.22;2.08;;;;;;;26.53;36.81;97063.91;5136427;27;20051;-27
2022/06/04 03:12:32;;;;;;;2.90;2.03;;;;;;;26.55;37.06;97071.75;5136665;27;20030;-27
2022/06/04 03:14:58;;;;;;;2.72;1.50;;;;;;;26.57;36.95;97080.34;5136725;27;20058;-27
2022/06/04 03:17:24;;;;;;;2.50;1.60;;;;;;;26.54;36.84;97075.78;5136590;27;20015;-27
2022/06/04 03:19:50;;;;;;;2.72;1.67;;;;;;;26.56;36.85;97073.25;5136370;27;20471;-26
2022/06/04 03:22:17;;;;;;;4.47;1.67;;;;;;;26.52;36.69;97079.09;5136667;27;20027;-27
2022/06/04 03:24:42;;;;;;;3.30;1.70;;;;;;;26.52;36.64;97081.88;5136249;27;20026;-27
2022/06/04 03:27:08;;;;;;;2.75;1.70;;;;;;;26.51;36.79;97082.38;5136621;27;20027;-26
2022/06/04 03:29:33;;;;;;;1.90;1.70;;;;;;;26.50;37.18;97064.19;5136388;27;20367;-26
2022/06/04 03:31:59;;;;;;;3.40;2.00;;;;;;;26.52;36.61;97059.63;5136365;27;20027;-28
2022/06/04 03:34:24;;;;;;;3.30;1.63;;;;;;;26.56;36.84;97062.88;5136180;27;20025;-27
2022/06/04 03:36:50;;;;;;;4.25;1.90;;;;;;;26.50;37.06;97056.59;5136282;27;20086;-27
2022/06/04 03:39:15;;;;;;;3.60;1.90;;;;;;;26.55;37.01;97063.41;5136196;27;20027;-28
2022/06/04 03:41:40;;;;;;;2.25;1.60;;;;;;;26.51;37.35;97060.88;5135990;27;20034;-27
2022/06/04 03:44:06;;;;;;;3.22;1.83;;;;;;;26.53;37.17;97063.91;5135879;27;20019;-27
2022/06/04 03:46:32;;;;;;;5.40;2.08;;;;;;;26.56;36.88;97065.66;5135991;27;20023;-27
2022/06/04 03:48:58;;;;;;;2.40;1.50;;;;;;;26.48;37.14;97067.47;5135821;27;20030;-28
2022/06/04 03:51:26;;;;;;;3.08;1.75;;;;;;;26.50;37.18;97064.94;5117347;27;20473;-26
2022/06/04 03:53:52;;;;;;;2.78;1.83;;;;;;;26.48;37.44;97062.69;5135767;27;20034;-28
2022/06/04 03:56:18;;;;;;;3.00;1.83;;;;;;;26.46;37.13;97075.59;5136046;27;20015;-26
2022/06/04 03:58:44;;;;;;;4.03;1.90;;;;;;;26.45;37.53;97063.72;5135910;27;20362;-26
2022/06/04 04:01:23;;;;;;;4.13;2.00;;;;;;;26.44;37.36;97078.91;5135792;27;20080;-26
2022/06/04 04:03:49;;;;;;;2.55;1.70;;;;;;;26.43;37.31;97082.22;5117387;27;20019;-26
2022/06/04 04:06:29;;;;;;;4.05;1.85;;;;;;;26.42;37.52;97081.44;5135447;27;20123;-26
2022/06/04 04:08:55;;;;;;;1.73;1.48;;;;;;;26.41;37.72;97073.63;5135337;27;20049;-26
2022/06/04 04:11:24;;;;;;;5.13;2.30;;;;;;;26.49;37.33;97077.34;5135439;27;20475;-26
2022/06/04 04:13:51;;;;;;;3.35;1.85;;;;;;;26.39;37.36;97078.94;5135231;27;20038;-27
2022/06/04 04:16:18;;;;;;;5.88;2.00;;;;;;;26.44;37.39;97073.34;5135681;27;20516;-26
2022/06/04 04:18:44;;;;;;;3.58;1.98;;;;;;;26.44;37.51;97073.34;5135351;27;20455;-26
2022/06/04 04:21:13;;;;;;;4.72;2.15;;;;;;;26.41;37.45;97071.59;5135132;27;20027;-27
2022/06/04 04:23:40;;;;;;;3.33;1.95;;;;;;;26.43;37.65;97071.06;5135366;27;20022;-26
2022/06/04 04:26:07;;;;;;;2.72;1.85;;;;;;;26.37;37.95;97075.91;5135351;27;20058;-26
2022/06/04 04:28:33;;;;;;;2.88;2.00;;;;;;;26.43;37.32;97088.53;5135261;27;20023;-28
2022/06/04 04:30:59;;;;;;;4.55;2.05;;;;;;;26.40;37.37;97086.00;5135112;27;20038;-26
2022/06/04 04:33:25;;;;;;;5.95;2.30;;;;;;;26.36;37.99;97082.75;5134970;27;20031;-28
2022/06/04 04:35:52;;;;;;;6.95;2.10;;;;;;;26.35;38.25;97076.44;5134914;27;20026;-27
2022/06/04 04:38:21;;;;;;;2.88;1.92;;;;;;;26.33;37.97;97073.44;5134725;27;20023;-27
2022/06/04 04:40:48;;;;;;;4.75;2.33;;;;;;;26.35;37.81;97078.44;5135263;27;20026;-27
2022/06/04 04:43:14;;;;;;;4.85;1.90;;;;;;;26.36;37.79;97083.50;5135127;27;20034;-26
2022/06/04 04:45:43;;;;;;;5.97;1.77;;;;;;;26.38;38.23;97080.97;5134832;27;20061;-26
2022/06/04 04:48:09;;;;;;;5.38;2.22;;;;;;;26.36;37.76;97077.19;5134939;27;20023;-26
2022/06/04 04:50:39;;;;;;;3.58;2.05;;;;;;;26.38;38.19;97080.22;5134840;27;20030;-26
2022/06/04 04:53:08;;;;;;;6.45;2.30;;;;;;;26.36;38.44;97077.19;5134935;27;20027;-26
2022/06/04 04:55:34;;;;;;;6.38;2.13;;;;;;;26.34;38.46;97083.25;5134770;27;20542;-27
2022/06/04 04:58:00;;;;;;;5.97;2.28;;;;;;;26.31;38.92;97072.44;5134640;27;20035;-27
2022/06/04 05:00:26;;;;;;;8.43;2.45;;;;;;;26.32;38.38;97083.03;5116250;27;20102;-26
2022/06/04 05:02:52;;;;;;;3.55;1.90;;;;;;;26.31;38.88;97078.00;5134403;27;20507;-26
2022/06/04 05:05:17;;;;;;;5.78;2.75;;;;;;;26.27;39.07;97074.69;5134611;27;20022;-26
2022/06/04 05:07:44;;;;;;;7.25;2.22;;;;;;;26.30;38.92;97073.69;5116057;27;20030;-27
2022/06/04 05:10:11;;;;;;;3.58;1.80;;;;;;;26.31;38.67;97069.66;5134299;27;20494;-27
2022/06/04 05:12:36;;;;;;;6.20;2.20;;;;;;;26.32;39.10;97076.72;5134487;27;20105;-27
2022/06/04 05:15:03;;;;;;;3.92;2.25;;;;;;;26.30;39.06;97082.03;5134501;27;20043;-26
2022/06/04 05:17:28;;;;;;;3.70;2.15;;;;;;;26.28;39.00;97077.00;5134407;27;20458;-26
2022/06/04 05:19:54;;;;;;;5.00;2.50;;;;;;;26.26;39.58;97076.72;5134313;27;20023;-27
2022/06/04 05:22:19;;;;;;;3.72;3.03;;;;;;;26.23;39.51;97077.75;5134246;28;20024;-27
2022/06/04 05:24:45;;;;;;;6.40;2.20;;;;;;;26.24;39.90;97086.84;5133845;27;20023;-27
2022/06/04 05:27:11;;;;;;;7.80;2.60;;;;;;;26.25;39.65;97086.34;5134306;28;20030;-27
2022/06/04 05:29:39;;;;;;;4.18;2.17;;;;;;;26.23;39.76;97090.91;5134441;28;20471;-28
2022/06/04 05:32:06;;;;;;;3.45;2.08;;;;;;;26.24;39.82;97092.41;5134408;28;20027;-27
2022/06/04 05:34:33;;;;;;;3.97;2.40;;;;;;;26.24;39.89;97097.97;5134200;28;20079;-27
2022/06/04 05:36:59;;;;;;;5.93;1.90;;;;;;;26.28;39.29;97093.69;5134140;28;20071;-26
2022/06/04 05:39:25;;;;;;;4.78;2.10;;;;;;;26.27;39.38;97091.38;5134139;28;20027;-27
2022/06/04 05:41:51;;;;;;;3.65;1.83;;;;;;;26.25;39.16;97105.78;5134236;28;20027;-26
2022/06/04 05:44:18;;;;;;;4.75;2.00;;;;;;;26.28;39.74;97101.25;5134266;28;20503;-26
2022/06/04 05:46:44;;;;;;;4.10;2.30;;;;;;;26.13;39.36;97099.56;5134176;28;20027;-26
2022/06/04 05:49:13;;;;;;;3.13;2.00;;;;;;;26.19;39.47;97101.56;5134200;28;20027;-27
2022/06/04 05:51:42;;;;;;;4.30;2.40;;;;;;;26.24;39.17;97120.22;5133922;28;20031;-26
2022/06/04 05:54:08;;;;;;;6.90;2.30;;;;;;;26.13;39.13;97127.34;5134443;28;20035;-26
2022/06/04 05:56:37;;;;;;;2.70;2.00;;;;;;;26.25;38.86;97125.25;5133214;28;20023;-26
2022/06/04 05:59:06;;;;;;;2.83;2.03;;;;;;;26.27;39.21;97124.75;5111461;28;20020;-28
2022/06/04 06:01:33;;;;;;;4.60;2.13;;;;;;;26.27;39.05;97135.88;5111206;28;20028;-26
2022/06/04 06:04:00;;;;;;;3.97;1.80;;;;;;;26.22;39.04;97145.75;5110512;28;20041;-27
2022/06/04 06:06:28;;;;;;;3.25;2.03;;;;;;;26.26;39.25;97139.91;5110603;28;20031;-26
2022/06/04 06:08:56;;;;;;;4.82;1.92;;;;;;;26.22;38.93;97131.09;5110691;28;20028;-27
2022/06/04 06:11:22;;;;;;;3.83;2.13;;;;;;;26.18;39.11;97133.41;5111225;28;20073;-27
2022/06/04 06:13:49;;;;;;;3.17;1.98;;;;;;;26.26;39.07;97131.56;5111239;28;20039;-28
2022/06/04 06:16:20;;;;;;;5.00;2.20;;;;;;;26.24;38.68;97131.34;5111377;28;20433;-26
2022/06/04 06:18:46;;;;;;;3.70;2.10;;;;;;;26.05;38.68;97123.59;5111422;28;20080;-26
2022/06/04 06:21:16;;;;;;;6.00;1.90;;;;;;;26.16;38.73;97108.88;5092620;28;20336;-26
2022/06/04 06:23:42;;;;;;;5.95;1.83;;;;;;;26.24;38.29;97097.97;5111004;28;20483;-26
2022/06/04 06:26:13;;;;;;;3.22;2.03;;;;;;;26.21;38.46;97099.03;5111076;28;20120;-26
2022/06/04 06:28:40;;;;;;;2.80;2.00;;;;;;;26.24;38.43;97103.53;5111349;28;20076;-26
2022/06/04 06:31:08;;;;;;;3.90;2.10;;;;;;;26.17;38.07;97109.66;5110742;28;20035;-27
2022/06/04 06:33:34;;;;;;;5.43;1.95;;;;;;;26.18;37.58;97111.16;5110913;28;20023;-28
2022/06/04 06:36:05;;;;;;;4.38;2.40;;;;;;;26.29;38.21;97105.56;5111841;28;20360;-26
2022/06/04 06:38:31;;;;;;;5.78;1.88;;;;;;;26.20;36.73;97103.06;5114630;28;20059;-28
2022/06/04 06:40:57;;;;;;;3.78;1.70;;;;;;;26.19;37.31;97109.91;5114788;28;20116;-27
2022/06/04 06:43:47;;;;;;;3.92;2.28;;;;;;;26.26;38.05;97106.56;5112978;28;20480;-26
2022/06/04 06:46:14;;;;;;;2.83;1.92;;;;;;;26.28;38.63;97095.69;5113651;28;20048;-26
2022/06/04 06:48:42;;;;;;;2.92;1.90;;;;;;;26.21;38.78;97102.53;5114672;28;20019;-26
2022/06/04 06:51:11;;;;;;;2.65;1.85;;;;;;;26.23;37.84;97102.00;5114595;28;20032;-26
2022/06/04 06:53:36;;;;;;;4.93;1.88;;;;;;;25.97;35.77;97080.19;5114540;28;20032;-27
2022/06/04 06:56:17;;;;;;;7.72;2.30;;;;;;;26.15;36.91;97096.25;5114298;28;20034;-26
2022/06/04 06:58:43;;;;;;;3.90;1.83;;;;;;;26.09;35.12;97101.09;5114060;28;20047;-27
2022/06/04 07:01:09;;;;;;;4.25;1.63;;;;;;;26.28;36.58;97101.25;5114231;28;20055;-26
2022/06/04 07:03:35;;;;;;;2.47;1.58;;;;;;;26.25;37.01;97099.47;5114285;28;20031;-27
2022/06/04 07:06:01;;;;;;;4.03;1.98;;;;;;;26.34;37.22;97110.31;5114093;28;20107;-27
2022/06/04 07:08:27;;;;;;;2.92;1.92;;;;;;;26.34;37.47;97111.06;5114286;28;20464;-27
2022/06/04 07:10:53;;;;;;;3.78;2.05;;;;;;;26.31;37.79;97111.38;5113914;28;20078;-26
2022/06/04 07:13:18;;;;;;;4.25;1.85;;;;;;;26.33;37.68;97117.16;5113946;28;20034;-26
2022/06/04 07:15:44;;;;;;;6.30;2.25;;;;;;;25.63;38.13;97110.16;5113113;28;20027;-27
2022/06/04 07:18:14;;;;;;;3.33;2.00;;;;;;;25.96;37.54;97107.25;5113800;28;20027;-27
2022/06/04 07:20:42;;;;;;;6.13;2.28;;;;;;;26.13;37.08;97098.78;5113728;28;20023;-27
2022/06/04 07:23:08;;;;;;;4.70;1.88;;;;;;;26.18;37.35;97102.81;5113799;28;20031;-27
2022/06/04 07:25:34;;;;;;;6.13;2.03;;;;;;;26.13;37.59;97105.09;5113713;28;20031;-28
2022/06/04 07:28:00;;;;;;;7.05;2.22;;;;;;;26.17;37.36;97098.53;5113392;28;20035;-28
2022/06/04 07:30:26;;;;;;;5.43;2.00;;;;;;;26.14;37.51;97105.88;5113407;28;20098;-28
2022/06/04 07:32:52;;;;;;;3.95;1.83;;;;;;;26.20;37.24;97112.16;5113075;28;20028;-27
2022/06/04 07:35:18;;;;;;;5.13;2.33;;;;;;;26.20;37.32;97116.97;5113475;28;20027;-26
2022/06/04 07:37:43;;;;;;;6.88;2.42;;;;;;;26.19;37.38;97113.44;5113231;28;20043;-27
2022/06/04 07:40:10;;;;;;;4.75;1.92;;;;;;;26.20;37.63;97108.63;5113354;28;20020;-27
2022/06/04 07:42:36;;;;;;;3.83;2.10;;;;;;;26.21;37.15;97113.66;5111581;28;20027;-27
2022/06/04 07:45:03;;;;;;;5.28;1.80;;;;;;;26.18;37.58;97116.72;5112859;28;20159;-27
2022/06/04 07:47:28;;;;;;;3.03;2.08;;;;;;;26.19;37.45;97112.66;5112652;28;20035;-27
2022/06/04 07:49:57;;;;;;;6.18;2.20;;;;;;;26.19;37.91;97123.78;5113018;28;20110;-27
2022/06/04 07:52:24;;;;;;;4.18;1.75;;;;;;;26.21;37.60;97127.53;5094814;28;20152;-27
2022/06/04 07:54:50;;;;;;;4.60;1.90;;;;;;;26.21;37.32;97127.53;5113156;28;20027;-27
2022/06/04 07:57:15;;;;;;;5.18;2.05;;;;;;;26.20;37.60;97134.41;5112950;28;20024;-27
2022/06/04 07:59:42;;;;;;;5.18;1.92;;;;;;;26.19;37.64;97132.13;5113272;28;20027;-28
2022/06/04 08:02:10;;;;;;;3.30;1.88;;;;;;;26.19;37.45;97134.91;5113211;28;20083;-27
2022/06/04 08:04:35;;;;;;;7.55;2.20;;;;;;;26.19;37.48;97135.66;5113131;28;20031;-27
2022/06/04 08:07:02;;;;;;;7.15;2.55;;;;;;;26.18;38.02;97138.97;5113189;28;20064;-27
2022/06/04 08:09:28;;;;;;;4.97;2.38;;;;;;;26.13;37.78;97138.47;5112592;28;20165;-27
2022/06/04 08:11:53;;;;;;;5.10;2.50;;;;;;;26.15;37.87;97139.97;5113017;28;20170;-27
2022/06/04 08:14:23;;;;;;;4.30;2.20;;;;;;;26.15;37.99;97146.28;5112967;28;20413;-28
2022/06/04 08:16:54;;;;;;;4.50;2.10;;;;;;;26.15;38.23;97151.09;5112759;28;20452;-29
2022/06/04 08:19:22;;;;;;;5.95;2.45;;;;;;;26.13;37.99;97152.38;5112935;28;20019;-27
2022/06/04 08:21:48;;;;;;;7.05;2.67;;;;;;;26.12;38.06;97142.50;5112581;28;20043;-27
2022/06/04 08:24:15;;;;;;;4.00;2.20;;;;;;;26.12;37.97;97153.63;5112932;28;20027;-27
2022/06/04 08:26:43;;;;;;;6.53;2.45;;;;;;;26.09;38.58;97148.34;5112646;28;20132;-26
2022/06/04 08:29:09;;;;;;;4.18;2.28;;;;;;;26.05;38.42;97148.63;5124960;27;20084;-28
2022/06/04 08:31:35;;;;;;;6.13;2.08;;;;;;;26.12;38.16;97144.53;5135030;27;20027;-27
2022/06/04 08:34:00;;;;;;;4.82;2.58;;;;;;;26.09;38.43;97146.31;5134523;27;20042;-27
2022/06/04 08:36:26;;;;;;;5.40;2.20;;;;;;;26.08;38.15;97144.81;5135244;27;20023;-27
2022/06/04 08:38:52;;;;;;;4.25;2.03;;;;;;;26.11;38.24;97154.16;5134948;27;20019;-28
2022/06/04 08:41:47;;;;;;;3.10;2.17;;;;;;;26.11;38.21;97163.25;5135004;27;20106;-28
2022/06/04 08:44:21;;;;;;;4.43;2.25;;;;;;;26.09;38.32;97174.09;5112995;27;20505;-27
2022/06/04 08:46:53;;;;;;;4.53;2.35;;;;;;;26.07;38.35;97175.91;5134796;27;20096;-27
2022/06/04 08:49:29;;;;;;;;;;;;;;;26.06;38.56;97185.53;5135315;27;20023;-27
2022/06/04 08:51:56;;;;;;;5.50;2.85;;;;;;;26.08;38.48;97180.97;5135190;27;19966;-27
2022/06/04 08:57:33;;;;;;;7.40;2.13;;;;;;;26.05;38.27;97181.22;5102968;27;20483;-27
2022/06/04 09:00:11;;;;;;;4.47;2.00;;;;;;;26.04;38.25;97172.13;5133794;27;20015;-27
2022/06/04 09:02:52;;;;;;;5.47;1.90;;;;;;;26.02;38.21;97177.44;5134815;27;20049;-27
2022/06/04 09:05:31;;;;;;;4.65;2.22;;;;;;;26.04;38.43;97177.69;5134559;27;20535;-27
2022/06/04 09:08:03;;;;;;;5.57;2.00;;;;;;;26.05;38.61;97198.66;5134639;27;20041;-27
2022/06/04 09:10:44;;;;;;;6.75;2.50;;;;;;;26.04;38.33;97205.47;5134373;27;20046;-29
2022/06/04 09:13:47;;;;;;;4.68;2.40;;;;;;;26.03;38.68;97211.56;5134423;27;20467;-26
2022/06/04 09:16:25;;;;;;;6.88;2.53;;;;;;;26.01;38.47;97212.06;5103086;28;20066;-27
2022/06/04 09:18:56;;;;;;;7.80;2.58;;;;;;;26.00;38.45;97207.75;5134466;27;20470;-26
2022/06/04 09:21:25;;;;;;;4.55;2.20;;;;;;;26.02;38.45;97210.78;5134306;27;20030;-27
2022/06/04 09:23:51;;;;;;;5.20;2.22;;;;;;;25.92;38.56;97220.69;5116083;28;20435;-27
2022/06/04 09:26:32;;;;;;;4.68;2.33;;;;;;;25.97;38.41;97225.44;5134331;28;20047;-27
2022/06/04 09:29:03;;;;;;;6.72;2.50;;;;;;;26.01;38.37;97214.84;5134412;28;20023;-27
2022/06/04 09:31:37;;;;;;;5.35;2.38;;;;;;;25.96;38.38;97215.63;5134284;28;20112;-27
2022/06/04 09:34:24;;;;;;;4.38;1.88;;;;;;;25.98;38.24;97212.31;5134285;28;20035;-27
2022/06/04 09:36:50;;;;;;;5.65;2.20;;;;;;;25.96;38.24;97212.09;5134229;28;20023;-27
2022/06/04 09:39:37;;;;;;;5.45;2.20;;;;;;;25.98;38.45;97203.97;5134198;28;20023;-27
2022/06/04 09:42:23;;;;;;;4.10;2.13;;;;;;;25.93;38.60;97204.78;5134179;28;20025;-26
2022/06/04 09:44:50;;;;;;;8.23;2.50;;;;;;;25.91;38.30;97216.41;5134258;28;20471;-27
2022/06/04 09:47:28;;;;;;;6.30;2.15;;;;;;;25.96;37.94;97223.97;5134117;28;20078;-27
2022/06/04 09:50:02;;;;;;;5.70;3.28;;;;;;;25.96;38.50;97237.88;5134019;28;20075;-27
2022/06/04 09:52:39;;;;;;;7.25;2.53;;;;;;;25.96;38.62;97239.88;5131019;28;20023;-28
2022/06/04 09:55:15;;;;;;;9.25;2.83;;;;;;;25.95;38.73;97230.03;5111199;28;20034;-27
2022/06/04 09:57:41;;;;;;;8.80;3.47;;;;;;;25.97;38.47;97239.34;5111662;28;20047;-27
2022/06/04 10:00:23;;;;;;;9.82;3.50;;;;;;;25.94;38.68;97243.16;5111599;28;20066;-27
2022/06/04 10:03:00;;;;;;;5.53;2.92;;;;;;;25.93;38.83;97255.56;5111371;28;20034;-27
2022/06/04 10:05:30;;;;;;;15.38;5.03;;;;;;;25.96;38.58;97237.88;5111355;28;20035;-27
2022/06/04 10:07:57;;;;;;;6.88;3.08;;;;;;;25.95;38.70;97230.78;5120175;27;20072;-27
2022/06/04 10:10:32;;;;;;;7.32;2.58;;;;;;;25.96;38.85;97212.84;5132761;27;20092;-27
2022/06/04 10:15:46;;;;;;;7.00;2.30;;;;;;;25.92;38.94;97220.69;5135887;27;20534;-27
2022/06/04 10:18:32;;;;;;;7.13;2.42;;;;;;;25.89;38.56;97213.38;5135248;27;20084;-27
2022/06/04 10:21:02;;;;;;;6.85;3.22;;;;;;;25.90;38.67;97220.44;5135695;27;20043;-28
2022/06/04 10:23:30;;;;;;;9.13;2.45;;;;;;;25.90;38.85;97222.47;5135418;27;20143;-28
2022/06/04 10:26:07;;;;;;;5.95;2.45;;;;;;;25.90;38.84;97226.00;5135272;27;20074;-28
2022/06/04 10:28:45;;;;;;;7.50;2.67;;;;;;;25.91;38.75;97232.31;5135247;27;20111;-28
2022/06/04 10:31:10;;;;;;;6.30;2.70;;;;;;;25.90;38.68;97220.44;5116811;27;20042;-29
2022/06/04 10:34:05;;;;;;;7.10;2.33;;;;;;;25.86;38.91;97219.19;5135620;27;20474;-27
2022/06/04 10:36:49;;;;;;;8.02;2.97;;;;;;;25.89;38.89;97210.59;5135320;27;20023;-28
2022/06/04 10:39:42;;;;;;;8.10;3.10;;;;;;;25.87;38.92;97215.13;5135401;27;20034;-27
2022/06/04 10:42:15;;;;;;;6.95;2.88;;;;;;;25.90;38.73;97217.66;5135045;27;20083;-28
2022/06/04 10:44:52;;;;;;;9.13;3.10;;;;;;;25.92;38.77;97201.22;5135156;27;20106;-27
2022/06/04 10:47:28;;;;;;;8.68;2.85;;;;;;;25.92;38.68;97200.47;5134918;27;20027;-27
2022/06/04 10:50:17;;;;;;;6.70;2.47;;;;;;;25.91;38.83;97199.72;5134946;27;20023;-27
2022/06/04 10:52:45;;;;;;;6.13;2.63;;;;;;;25.90;38.93;97203.00;5134541;27;20027;-27
2022/06/04 10:55:28;;;;;;;6.57;2.47;;;;;;;25.90;38.95;97219.69;5135057;27;20436;-27
2022/06/04 10:58:19;;;;;;;6.25;2.80;;;;;;;25.85;38.88;97217.66;5134922;27;20034;-28
2022/06/04 11:00:53;;;;;;;10.90;3.03;;;;;;;26.43;38.03;97210.91;5134909;27;20385;-25
2022/06/04 11:03:37;;;;;;;8.30;3.03;;;;;;;27.17;36.70;97215.47;5134834;27;20095;-25
2022/06/04 11:06:13;;;;;;;8.98;2.70;;;;;;;27.62;35.97;97220.66;5134500;27;20394;-26
2022/06/04 11:08:45;;;;;;;12.88;2.90;;;;;;;27.86;35.79;97231.06;5132614;27;20027;-26
2022/06/04 11:11:21;;;;;;;8.33;2.53;;;;;;;27.99;35.23;97225.59;5134694;27;20155;-26
2022/06/04 11:14:02;;;;;;;10.10;2.47;;;;;;;28.14;35.25;97225.91;5134698;27;20259;-25
2022/06/04 11:16:34;;;;;;;9.35;2.72;;;;;;;28.06;35.43;97215.88;5134615;27;20042;-26
2022/06/04 11:19:21;;;;;;;8.63;2.85;;;;;;;28.15;35.03;97207.91;5134784;27;20060;-26
2022/06/04 11:21:51;;;;;;;10.98;2.60;;;;;;;28.19;34.94;97190.88;5133617;27;20135;-26
2022/06/04 11:24:19;;;;;;;7.07;2.28;;;;;;;28.17;35.52;97202.56;5134270;27;20056;-26
2022/06/04 11:26:53;;;;;;;8.15;2.33;;;;;;;28.23;34.92;97205.28;5134477;27;20031;-25
2022/06/04 11:29:18;;;;;;;5.95;2.13;;;;;;;28.29;34.93;97196.88;5134246;27;20031;-26
2022/06/04 11:32:15;;;;;;;5.18;2.50;;;;;;;28.14;35.13;97209.19;5134422;27;20027;-26
2022/06/04 11:34:55;;;;;;;7.07;2.50;;;;;;;28.21;35.12;97200.25;5134015;27;20035;-25
2022/06/04 11:37:40;;;;;;;7.40;2.58;;;;;;;28.21;35.41;97194.66;5134281;27;20027;-26
2022/06/04 11:40:32;;;;;;;5.07;2.10;;;;;;;28.20;35.39;97201.50;5115620;27;20463;-25
2022/06/04 11:43:12;;;;;;;6.80;2.97;;;;;;;28.15;35.48;97191.16;5134109;27;20027;-26
2022/06/04 11:46:03;;;;;;;4.18;2.40;;;;;;;28.13;35.71;97177.00;5134244;27;20062;-26
2022/06/04 11:48:38;;;;;;;7.60;2.90;;;;;;;28.07;34.94;97159.56;5119602;27;20051;-26
2022/06/04 11:51:30;;;;;;;6.22;2.25;;;;;;;28.13;35.36;97157.47;5134048;27;20091;-26
2022/06/04 11:54:17;;;;;;;7.38;2.33;;;;;;;27.87;35.51;97149.69;5133821;27;20026;-26
2022/06/04 11:56:55;;;;;;;5.90;2.72;;;;;;;27.97;35.69;97161.22;5133812;27;20031;-26
2022/06/04 11:59:39;;;;;;;7.82;2.53;;;;;;;28.08;35.82;97172.22;5133846;27;20080;-26
2022/06/04 12:02:19;;;;;;;6.90;2.45;;;;;;;28.12;35.60;97172.69;5133654;27;20031;-26
2022/06/04 12:05:07;;;;;;;8.07;2.35;;;;;;;27.97;35.80;97169.59;5133426;27;20019;-26
2022/06/04 12:07:42;;;;;;;10.13;3.00;;;;;;;27.79;35.63;97171.06;5131753;27;20110;-26